createdAt,value
2022-08-12T00:00:12.438Z,1017.11
2022-08-12T00:01:12.445Z,1017.12
2022-08-12T00:02:12.421Z,1017.10
2022-08-12T00:03:12.430Z,1017.13
2022-08-12T00:04:14.330Z,1017.12
2022-08-12T00:05:12.381Z,1017.13
2022-08-12T00:06:12.386Z,1017.09
2022-08-12T00:07:12.362Z,1017.11
2022-08-12T00:08:12.348Z,1017.13
2022-08-12T00:09:12.337Z,1017.14
2022-08-12T00:10:12.340Z,1017.17
2022-08-12T00:11:12.869Z,1017.18
2022-08-12T00:12:12.304Z,1017.17
2022-08-12T00:13:12.290Z,1017.18
2022-08-12T00:14:12.306Z,1017.18
2022-08-12T00:15:12.284Z,1017.24
2022-08-12T00:16:12.292Z,1017.22
2022-08-12T00:17:12.251Z,1017.22
2022-08-12T00:18:12.237Z,1017.24
2022-08-12T00:19:12.298Z,1017.31
2022-08-12T00:20:12.239Z,1017.27
2022-08-12T00:21:12.572Z,1017.30
2022-08-12T00:22:12.191Z,1017.28
2022-08-12T00:23:12.180Z,1017.28
2022-08-12T00:24:12.178Z,1017.26
2022-08-12T00:25:12.161Z,1017.25
2022-08-12T00:26:22.470Z,1017.22
2022-08-12T00:27:13.162Z,1017.26
2022-08-12T00:28:12.141Z,1017.21
2022-08-12T00:29:12.167Z,1017.23
2022-08-12T00:30:12.105Z,1017.26
2022-08-12T00:31:12.094Z,1017.24
2022-08-12T00:32:12.844Z,1017.26
2022-08-12T00:33:13.085Z,1017.23
2022-08-12T00:34:12.061Z,1017.20
2022-08-12T00:35:12.044Z,1017.21
2022-08-12T00:36:14.855Z,1017.23
2022-08-12T00:37:14.233Z,1017.23
2022-08-12T00:38:12.032Z,1017.25
2022-08-12T00:39:12.064Z,1017.24
2022-08-12T00:40:12.171Z,1017.22
2022-08-12T00:41:11.984Z,1017.22
2022-08-12T00:42:11.991Z,1017.21
2022-08-12T00:43:11.969Z,1017.24
2022-08-12T00:44:11.952Z,1017.25
2022-08-12T00:45:11.943Z,1017.22
2022-08-12T00:46:11.930Z,1017.25
2022-08-12T00:47:25.072Z,1017.23
2022-08-12T00:48:12.919Z,1017.25
2022-08-12T00:49:12.210Z,1017.26
2022-08-12T00:50:11.900Z,1017.26
2022-08-12T00:51:11.869Z,1017.25
2022-08-12T00:52:11.874Z,1017.26
2022-08-12T00:53:11.970Z,1017.23
2022-08-12T00:54:11.835Z,1017.25
2022-08-12T00:55:12.148Z,1017.26
2022-08-12T00:56:11.814Z,1017.24
2022-08-12T00:57:11.825Z,1017.25
2022-08-12T00:58:11.794Z,1017.24
2022-08-12T00:59:11.788Z,1017.26
2022-08-12T01:00:11.793Z,1017.24
2022-08-12T01:01:11.864Z,1017.20
2022-08-12T01:02:12.756Z,1017.21
2022-08-12T01:03:11.739Z,1017.27
2022-08-12T01:04:11.728Z,1017.22
2022-08-12T01:05:11.714Z,1017.20
2022-08-12T01:06:11.885Z,1017.24
2022-08-12T01:07:11.693Z,1017.24
2022-08-12T01:08:11.682Z,1017.30
2022-08-12T01:09:11.678Z,1017.28
2022-08-12T01:10:11.684Z,1017.26
2022-08-12T01:11:11.651Z,1017.24
2022-08-12T01:12:11.829Z,1017.22
2022-08-12T01:13:19.396Z,1017.23
2022-08-12T01:14:12.617Z,1017.23
2022-08-12T01:15:11.621Z,1017.23
2022-08-12T01:16:11.594Z,1017.24
2022-08-12T01:17:11.585Z,1017.27
2022-08-12T01:18:11.575Z,1017.30
2022-08-12T01:19:11.577Z,1017.27
2022-08-12T01:20:11.553Z,1017.26
2022-08-12T01:21:11.544Z,1017.25
2022-08-12T01:22:11.533Z,1017.24
2022-08-12T01:23:11.680Z,1017.24
2022-08-12T01:24:29.498Z,1017.20
2022-08-12T01:25:12.501Z,1017.23
2022-08-12T01:26:11.484Z,1017.24
2022-08-12T01:27:11.577Z,1017.24
2022-08-12T01:28:11.487Z,1017.24
2022-08-12T01:29:11.453Z,1017.23
2022-08-12T01:30:11.462Z,1017.21
2022-08-12T01:31:15.831Z,1017.23
2022-08-12T01:32:12.440Z,1017.20
2022-08-12T01:33:11.409Z,1017.20
2022-08-12T01:34:36.658Z,1017.20
2022-08-12T01:35:12.399Z,1017.19
2022-08-12T01:36:11.383Z,1017.20
2022-08-12T01:37:11.385Z,1017.22
2022-08-12T01:38:11.566Z,1017.25
2022-08-12T01:39:11.389Z,1017.24
2022-08-12T01:40:34.099Z,1017.26
2022-08-12T01:41:12.316Z,1017.29
2022-08-12T01:42:11.499Z,1017.27
2022-08-12T01:43:11.311Z,1017.23
2022-08-12T01:44:11.667Z,1017.29
2022-08-12T01:45:11.284Z,1017.26
2022-08-12T01:46:11.271Z,1017.27
2022-08-12T01:47:11.254Z,1017.24
2022-08-12T01:48:11.273Z,1017.27
2022-08-12T01:49:11.228Z,1017.25
2022-08-12T01:50:11.238Z,1017.23
2022-08-12T01:51:11.209Z,1017.25
2022-08-12T01:52:20.878Z,1017.20
2022-08-12T01:53:12.202Z,1017.23
2022-08-12T01:54:11.179Z,1017.20
2022-08-12T01:55:11.497Z,1017.24
2022-08-12T01:56:11.152Z,1017.22
2022-08-12T01:57:11.164Z,1017.26
2022-08-12T01:58:11.131Z,1017.27
2022-08-12T01:59:12.410Z,1017.26
2022-08-12T02:00:11.111Z,1017.27
2022-08-12T02:01:11.446Z,1017.26
2022-08-12T02:02:11.110Z,1017.28
2022-08-12T02:03:11.073Z,1017.28
2022-08-12T02:04:11.064Z,1017.31
2022-08-12T02:05:11.071Z,1017.25
2022-08-12T02:06:11.062Z,1017.30
2022-08-12T02:07:11.036Z,1017.27
2022-08-12T02:08:11.024Z,1017.29
2022-08-12T02:09:11.006Z,1017.29
2022-08-12T02:10:11.015Z,1017.25
2022-08-12T02:11:11.998Z,1017.26
2022-08-12T02:12:11.042Z,1017.24
2022-08-12T02:13:10.965Z,1017.24
2022-08-12T02:14:10.988Z,1017.23
2022-08-12T02:15:10.939Z,1017.20
2022-08-12T02:16:11.140Z,1017.21
2022-08-12T02:17:10.929Z,1017.19
2022-08-12T02:18:10.913Z,1017.15
2022-08-12T02:19:13.197Z,1017.15
2022-08-12T02:20:12.392Z,1017.11
2022-08-12T02:21:10.877Z,1017.14
2022-08-12T02:22:10.867Z,1017.11
2022-08-12T02:23:10.901Z,1017.11
2022-08-12T02:24:10.850Z,1017.11
2022-08-12T02:25:10.840Z,1017.12
2022-08-12T02:26:10.823Z,1017.10
2022-08-12T02:27:10.926Z,1017.11
2022-08-12T02:28:10.801Z,1017.16
2022-08-12T02:29:10.817Z,1017.16
2022-08-12T02:30:10.780Z,1017.19
2022-08-12T02:31:10.775Z,1017.14
2022-08-12T02:32:10.842Z,1017.16
2022-08-12T02:33:11.383Z,1017.12
2022-08-12T02:34:10.998Z,1017.10
2022-08-12T02:35:10.737Z,1017.11
2022-08-12T02:36:18.405Z,1017.11
2022-08-12T02:37:10.699Z,1017.12
2022-08-12T02:38:10.728Z,1017.17
2022-08-12T02:39:10.726Z,1017.20
2022-08-12T02:40:10.662Z,1017.25
2022-08-12T02:41:10.651Z,1017.16
2022-08-12T02:42:10.673Z,1017.20
2022-08-12T02:43:10.633Z,1017.17
2022-08-12T02:44:10.621Z,1017.15
2022-08-12T02:45:10.641Z,1017.16
2022-08-12T02:46:14.552Z,1017.13
2022-08-12T02:47:18.279Z,1017.13
2022-08-12T02:48:11.647Z,1017.09
2022-08-12T02:49:12.612Z,1017.15
2022-08-12T02:50:10.556Z,1017.12
2022-08-12T02:51:10.555Z,1017.15
2022-08-12T02:52:10.527Z,1017.11
2022-08-12T02:53:10.524Z,1017.12
2022-08-12T02:54:10.510Z,1017.01
2022-08-12T02:55:10.517Z,1017.06
2022-08-12T02:56:10.499Z,1017.10
2022-08-12T02:57:10.481Z,1017.12
2022-08-12T02:58:12.387Z,1017.10
2022-08-12T02:59:11.410Z,1017.12
2022-08-12T03:00:10.477Z,1017.15
2022-08-12T03:01:10.530Z,1017.14
2022-08-12T03:02:10.421Z,1017.17
2022-08-12T03:03:10.725Z,1017.13
2022-08-12T03:04:20.071Z,1017.16
2022-08-12T03:05:11.402Z,1017.13
2022-08-12T03:06:10.389Z,1017.12
2022-08-12T03:07:10.368Z,1017.16
2022-08-12T03:08:11.104Z,1017.12
2022-08-12T03:09:10.347Z,1017.12
2022-08-12T03:10:15.894Z,1017.10
2022-08-12T03:11:11.949Z,1017.14
2022-08-12T03:12:10.313Z,1017.15
2022-08-12T03:13:11.300Z,1017.17
2022-08-12T03:14:10.286Z,1017.17
2022-08-12T03:15:10.280Z,1017.15
2022-08-12T03:16:10.283Z,1017.16
2022-08-12T03:17:10.257Z,1017.16
2022-08-12T03:18:26.516Z,1017.20
2022-08-12T03:19:11.252Z,1017.17
2022-08-12T03:20:11.279Z,1017.19
2022-08-12T03:21:10.214Z,1017.15
2022-08-12T03:22:10.200Z,1017.16
2022-08-12T03:23:10.188Z,1017.18
2022-08-12T03:24:11.458Z,1017.22
2022-08-12T03:25:10.166Z,1017.18
2022-08-12T03:26:10.153Z,1017.21
2022-08-12T03:27:10.147Z,1017.21
2022-08-12T03:28:10.128Z,1017.18
2022-08-12T03:29:11.120Z,1017.16
2022-08-12T03:30:10.130Z,1017.18
2022-08-12T03:31:10.109Z,1017.17
2022-08-12T03:32:10.088Z,1017.19
2022-08-12T03:33:11.102Z,1017.16
2022-08-12T03:34:10.066Z,1017.15
2022-08-12T03:35:10.129Z,1017.13
2022-08-12T03:36:11.041Z,1017.17
2022-08-12T03:37:10.036Z,1017.14
2022-08-12T03:38:11.590Z,1017.18
2022-08-12T03:39:10.039Z,1017.16
2022-08-12T03:40:10.039Z,1017.22
2022-08-12T03:41:09.994Z,1017.15
2022-08-12T03:42:09.971Z,1017.18
2022-08-12T03:43:11.653Z,1017.19
2022-08-12T03:44:09.965Z,1017.18
2022-08-12T03:45:09.942Z,1017.18
2022-08-12T03:46:09.929Z,1017.18
2022-08-12T03:47:09.919Z,1017.20
2022-08-12T03:48:09.911Z,1017.22
2022-08-12T03:49:09.910Z,1017.18
2022-08-12T03:50:09.929Z,1017.22
2022-08-12T03:51:09.874Z,1017.21
2022-08-12T03:52:09.877Z,1017.23
2022-08-12T03:53:09.858Z,1017.26
2022-08-12T03:54:11.439Z,1017.26
2022-08-12T03:55:09.835Z,1017.24
2022-08-12T03:56:09.817Z,1017.26
2022-08-12T03:57:09.806Z,1017.29
2022-08-12T03:58:09.805Z,1017.25
2022-08-12T03:59:09.785Z,1017.25
2022-08-12T04:00:09.776Z,1017.32
2022-08-12T04:01:09.805Z,1017.29
2022-08-12T04:02:09.748Z,1017.28
2022-08-12T04:03:12.910Z,1017.23
2022-08-12T04:04:09.728Z,1017.26
2022-08-12T04:05:09.711Z,1017.26
2022-08-12T04:06:09.709Z,1017.27
2022-08-12T04:07:09.730Z,1017.26
2022-08-12T04:08:09.698Z,1017.30
2022-08-12T04:09:16.385Z,1017.28
2022-08-12T04:10:10.664Z,1017.32
2022-08-12T04:11:09.649Z,1017.29
2022-08-12T04:12:09.641Z,1017.35
2022-08-12T04:13:09.640Z,1017.29
2022-08-12T04:14:09.611Z,1017.34
2022-08-12T04:15:09.604Z,1017.35
2022-08-12T04:16:09.589Z,1017.30
2022-08-12T04:17:09.587Z,1017.36
2022-08-12T04:18:09.581Z,1017.32
2022-08-12T04:19:09.557Z,1017.35
2022-08-12T04:20:09.547Z,1017.33
2022-08-12T04:21:09.537Z,1017.32
2022-08-12T04:22:09.527Z,1017.35
2022-08-12T04:23:09.530Z,1017.39
2022-08-12T04:24:09.558Z,1017.38
2022-08-12T04:25:09.489Z,1017.39
2022-08-12T04:26:09.477Z,1017.34
2022-08-12T04:27:09.487Z,1017.39
2022-08-12T04:28:13.511Z,1017.37
2022-08-12T04:29:09.445Z,1017.38
2022-08-12T04:30:30.291Z,1017.39
2022-08-12T04:31:10.420Z,1017.38
2022-08-12T04:32:09.425Z,1017.36
2022-08-12T04:33:09.404Z,1017.38
2022-08-12T04:34:09.387Z,1017.32
2022-08-12T04:35:09.379Z,1017.36
2022-08-12T04:36:09.375Z,1017.37
2022-08-12T04:37:09.394Z,1017.38
2022-08-12T04:38:09.343Z,1017.39
2022-08-12T04:39:09.334Z,1017.40
2022-08-12T04:40:09.327Z,1017.38
2022-08-12T04:41:09.581Z,1017.39
2022-08-12T04:42:09.298Z,1017.36
2022-08-12T04:43:54.505Z,1017.43
2022-08-12T04:44:10.274Z,1017.45
2022-08-12T04:45:09.268Z,1017.38
2022-08-12T04:46:09.265Z,1017.37
2022-08-12T04:47:09.243Z,1017.34
2022-08-12T04:48:09.231Z,1017.37
2022-08-12T04:49:09.224Z,1017.32
2022-08-12T04:50:34.716Z,1017.34
2022-08-12T04:51:10.194Z,1017.33
2022-08-12T04:52:09.330Z,1017.37
2022-08-12T04:53:09.365Z,1017.37
2022-08-12T04:54:09.203Z,1017.45
2022-08-12T04:55:09.157Z,1017.41
2022-08-12T04:56:09.155Z,1017.38
2022-08-12T04:57:09.156Z,1017.37
2022-08-12T04:58:09.980Z,1017.38
2022-08-12T04:59:09.110Z,1017.37
2022-08-12T05:00:09.095Z,1017.40
2022-08-12T05:01:09.118Z,1017.39
2022-08-12T05:02:09.636Z,1017.43
2022-08-12T05:03:10.063Z,1017.37
2022-08-12T05:04:09.058Z,1017.40
2022-08-12T05:05:09.057Z,1017.41
2022-08-12T05:06:09.031Z,1017.39
2022-08-12T05:07:10.019Z,1017.40
2022-08-12T05:08:09.010Z,1017.38
2022-08-12T05:09:11.170Z,1017.34
2022-08-12T05:10:09.001Z,1017.36
2022-08-12T05:11:08.977Z,1017.37
2022-08-12T05:12:08.964Z,1017.38
2022-08-12T05:13:08.965Z,1017.39
2022-08-12T05:14:08.953Z,1017.36
2022-08-12T05:15:18.888Z,1017.37
2022-08-12T05:16:09.917Z,1017.40
2022-08-12T05:17:08.912Z,1017.38
2022-08-12T05:18:19.476Z,1017.37
2022-08-12T05:19:12.950Z,1017.36
2022-08-12T05:20:09.873Z,1017.35
2022-08-12T05:21:08.867Z,1017.34
2022-08-12T05:22:08.850Z,1017.39
2022-08-12T05:23:13.089Z,1017.35
2022-08-12T05:24:08.844Z,1017.34
2022-08-12T05:25:08.821Z,1017.32
2022-08-12T05:26:08.810Z,1017.35
2022-08-12T05:27:08.798Z,1017.35
2022-08-12T05:28:09.479Z,1017.34
2022-08-12T05:30:05.583Z,1017.31
2022-08-12T05:30:09.780Z,1017.36
2022-08-12T05:31:08.774Z,1017.33
2022-08-12T05:32:08.784Z,1017.39
2022-08-12T05:33:08.752Z,1017.42
2022-08-12T05:34:08.719Z,1017.42
2022-08-12T05:35:08.710Z,1017.41
2022-08-12T05:36:08.701Z,1017.39
2022-08-12T05:37:08.691Z,1017.40
2022-08-12T05:38:08.675Z,1017.41
2022-08-12T05:39:08.687Z,1017.42
2022-08-12T05:40:11.418Z,1017.44
2022-08-12T05:41:08.652Z,1017.45
2022-08-12T05:42:08.631Z,1017.47
2022-08-12T05:43:09.015Z,1017.50
2022-08-12T05:44:08.613Z,1017.47
2022-08-12T05:45:08.601Z,1017.49
2022-08-12T05:46:08.586Z,1017.49
2022-08-12T05:47:08.986Z,1017.52
2022-08-12T05:48:08.563Z,1017.52
2022-08-12T05:49:08.568Z,1017.47
2022-08-12T05:50:08.544Z,1017.49
2022-08-12T05:51:08.534Z,1017.43
2022-08-12T05:52:08.532Z,1017.41
2022-08-12T05:53:08.543Z,1017.46
2022-08-12T05:54:08.516Z,1017.46
2022-08-12T05:55:08.486Z,1017.52
2022-08-12T05:56:08.489Z,1017.48
2022-08-12T05:57:08.480Z,1017.47
2022-08-12T05:58:08.455Z,1017.46
2022-08-12T05:59:08.448Z,1017.50
2022-08-12T06:00:08.433Z,1017.49
2022-08-12T06:02:11.589Z,1017.48
2022-08-12T06:02:13.417Z,1017.54
2022-08-12T06:03:08.487Z,1017.57
2022-08-12T06:04:08.804Z,1017.53
2022-08-12T06:05:08.390Z,1017.53
2022-08-12T06:06:08.367Z,1017.51
2022-08-12T06:07:37.382Z,1017.50
2022-08-12T06:08:09.363Z,1017.54
2022-08-12T06:09:08.335Z,1017.56
2022-08-12T06:10:08.336Z,1017.58
2022-08-12T06:11:08.323Z,1017.59
2022-08-12T06:12:08.305Z,1017.61
2022-08-12T06:13:08.290Z,1017.57
2022-08-12T06:14:12.144Z,1017.60
2022-08-12T06:15:08.268Z,1017.58
2022-08-12T06:16:08.273Z,1017.58
2022-08-12T06:17:08.309Z,1017.59
2022-08-12T06:18:14.437Z,1017.62
2022-08-12T06:19:09.236Z,1017.59
2022-08-12T06:20:28.345Z,1017.62
2022-08-12T06:21:09.307Z,1017.62
2022-08-12T06:22:08.192Z,1017.59
2022-08-12T06:23:08.182Z,1017.60
2022-08-12T06:24:08.168Z,1017.63
2022-08-12T06:25:08.159Z,1017.61
2022-08-12T06:26:08.259Z,1017.59
2022-08-12T06:27:08.137Z,1017.62
2022-08-12T06:28:08.581Z,1017.59
2022-08-12T06:29:08.113Z,1017.64
2022-08-12T06:30:13.412Z,1017.65
2022-08-12T06:31:25.247Z,1017.66
2022-08-12T06:32:09.100Z,1017.62
2022-08-12T06:33:18.376Z,1017.66
2022-08-12T06:35:23.436Z,1017.68
2022-08-12T06:35:25.500Z,1017.65
2022-08-12T06:36:09.079Z,1017.68
2022-08-12T06:37:08.026Z,1017.68
2022-08-12T06:38:08.019Z,1017.66
2022-08-12T06:39:14.679Z,1017.69
2022-08-12T06:40:09.045Z,1017.72
2022-08-12T06:41:08.004Z,1017.72
2022-08-12T06:42:31.965Z,1017.66
2022-08-12T06:43:08.961Z,1017.65
2022-08-12T06:44:08.194Z,1017.70
2022-08-12T06:45:11.785Z,1017.67
2022-08-12T06:46:07.957Z,1017.68
2022-08-12T06:47:07.938Z,1017.69
2022-08-12T06:48:07.908Z,1017.65
2022-08-12T06:49:07.896Z,1017.70
2022-08-12T06:50:07.904Z,1017.70
2022-08-12T06:51:07.873Z,1017.67
2022-08-12T06:52:07.865Z,1017.66
2022-08-12T06:53:07.907Z,1017.73
2022-08-12T06:54:07.845Z,1017.74
2022-08-12T06:55:07.842Z,1017.75
2022-08-12T06:56:12.026Z,1017.72
2022-08-12T06:58:06.487Z,1017.71
2022-08-12T06:58:10.073Z,1017.74
2022-08-12T06:59:07.807Z,1017.74
2022-08-12T07:00:07.778Z,1017.74
2022-08-12T07:01:07.801Z,1017.69
2022-08-12T07:02:07.775Z,1017.75
2022-08-12T07:03:22.564Z,1017.70
2022-08-12T07:04:33.772Z,1017.73
2022-08-12T07:05:08.724Z,1017.71
2022-08-12T07:06:07.713Z,1017.76
2022-08-12T07:07:07.762Z,1017.79
2022-08-12T07:08:10.160Z,1017.74
2022-08-12T07:09:07.682Z,1017.75
2022-08-12T07:10:08.412Z,1017.77
2022-08-12T07:11:07.658Z,1017.78
2022-08-12T07:12:07.709Z,1017.74
2022-08-12T07:13:07.661Z,1017.80
2022-08-12T07:14:13.281Z,1017.79
2022-08-12T07:15:08.617Z,1017.75
2022-08-12T07:16:07.612Z,1017.77
2022-08-12T07:17:07.599Z,1017.77
2022-08-12T07:18:07.613Z,1017.77
2022-08-12T07:19:07.583Z,1017.75
2022-08-12T07:20:07.573Z,1017.75
2022-08-12T07:21:08.033Z,1017.81
2022-08-12T07:22:07.549Z,1017.77
2022-08-12T07:23:07.542Z,1017.82
2022-08-12T07:24:07.526Z,1017.81
2022-08-12T07:25:07.527Z,1017.84
2022-08-12T07:26:07.507Z,1017.88
2022-08-12T07:27:07.505Z,1017.83
2022-08-12T07:28:16.013Z,1017.87
2022-08-12T07:29:08.496Z,1017.89
2022-08-12T07:30:07.468Z,1017.93
2022-08-12T07:31:07.468Z,1017.93
2022-08-12T07:32:07.446Z,1017.92
2022-08-12T07:33:07.440Z,1017.94
2022-08-12T07:34:07.427Z,1017.95
2022-08-12T07:35:07.432Z,1017.96
2022-08-12T07:36:07.411Z,1017.90
2022-08-12T07:37:07.396Z,1017.89
2022-08-12T07:38:07.386Z,1017.91
2022-08-12T07:39:07.388Z,1017.99
2022-08-12T07:40:07.463Z,1017.97
2022-08-12T07:41:07.368Z,1017.98
2022-08-12T07:42:07.347Z,1017.96
2022-08-12T07:43:07.337Z,1018.02
2022-08-12T07:44:07.443Z,1018.01
2022-08-12T07:45:07.318Z,1018.02
2022-08-12T07:46:07.341Z,1017.98
2022-08-12T07:47:07.316Z,1018.04
2022-08-12T07:48:07.289Z,1017.99
2022-08-12T07:49:07.294Z,1017.95
2022-08-12T07:50:07.282Z,1018.02
2022-08-12T07:51:07.256Z,1017.96
2022-08-12T07:52:07.249Z,1018.03
2022-08-12T07:53:07.239Z,1018.09
2022-08-12T07:54:07.249Z,1018.04
2022-08-12T07:55:07.228Z,1018.03
2022-08-12T07:56:07.211Z,1018.05
2022-08-12T07:57:07.196Z,1018.05
2022-08-12T07:58:07.193Z,1018.12
2022-08-12T07:59:07.482Z,1018.05
2022-08-12T08:00:07.185Z,1018.05
2022-08-12T08:01:11.849Z,1018.05
2022-08-12T08:02:08.232Z,1018.10
2022-08-12T08:03:07.283Z,1018.08
2022-08-12T08:04:07.132Z,1018.01
2022-08-12T08:05:07.132Z,1018.02
2022-08-12T08:06:07.113Z,1018.06
2022-08-12T08:07:08.194Z,1017.97
2022-08-12T08:08:07.093Z,1018.01
2022-08-12T08:09:07.084Z,1018.06
2022-08-12T08:10:07.098Z,1018.02
2022-08-12T08:11:07.067Z,1018.01
2022-08-12T08:12:07.055Z,1018.01
2022-08-12T08:13:07.047Z,1018.02
2022-08-12T08:14:07.038Z,1018.03
2022-08-12T08:15:07.040Z,1018.01
2022-08-12T08:16:07.021Z,1018.04
2022-08-12T08:17:07.007Z,1018.00
2022-08-12T08:18:06.998Z,1018.01
2022-08-12T08:19:07.011Z,1017.95
2022-08-12T08:20:06.989Z,1017.94
2022-08-12T08:21:06.971Z,1017.99
2022-08-12T08:22:06.983Z,1017.99
2022-08-12T08:23:06.949Z,1017.99
2022-08-12T08:24:06.991Z,1017.99
2022-08-12T08:25:34.447Z,1017.97
2022-08-12T08:26:08.299Z,1017.94
2022-08-12T08:27:06.911Z,1017.92
2022-08-12T08:28:06.911Z,1017.99
2022-08-12T08:29:06.898Z,1017.93
2022-08-12T08:30:06.900Z,1017.93
2022-08-12T08:31:06.873Z,1017.88
2022-08-12T08:32:06.864Z,1017.92
2022-08-12T08:33:07.524Z,1017.89
2022-08-12T08:34:33.591Z,1017.90
2022-08-12T08:35:07.845Z,1017.99
2022-08-12T08:36:07.643Z,1017.95
2022-08-12T08:37:07.989Z,1017.99
2022-08-12T08:38:06.810Z,1017.91
2022-08-12T08:39:06.799Z,1018.04
2022-08-12T08:40:06.816Z,1018.02
2022-08-12T08:41:06.791Z,1018.10
2022-08-12T08:42:15.278Z,1018.11
2022-08-12T08:43:07.759Z,1018.03
2022-08-12T08:44:06.758Z,1018.08
2022-08-12T08:45:06.740Z,1018.08
2022-08-12T08:46:06.760Z,1018.03
2022-08-12T08:47:06.736Z,1017.99
2022-08-12T08:48:06.715Z,1018.05
2022-08-12T08:49:06.705Z,1017.93
2022-08-12T08:50:06.696Z,1018.09
2022-08-12T08:51:06.685Z,1018.06
2022-08-12T08:52:07.054Z,1018.09
2022-08-12T08:53:06.665Z,1018.04
2022-08-12T08:54:06.662Z,1018.11
2022-08-12T08:55:06.664Z,1018.06
2022-08-12T08:56:06.652Z,1017.99
2022-08-12T08:57:06.632Z,1018.08
2022-08-12T08:58:06.627Z,1018.02
2022-08-12T08:59:06.612Z,1018.06
2022-08-12T09:00:06.608Z,1018.12
2022-08-12T09:01:06.702Z,1018.03
2022-08-12T09:02:07.716Z,1018.08
2022-08-12T09:03:15.588Z,1018.06
2022-08-12T09:05:09.662Z,1018.05
2022-08-12T09:05:14.889Z,1018.09
2022-08-12T09:06:07.562Z,1018.07
2022-08-12T09:07:17.356Z,1018.04
2022-08-12T09:08:12.089Z,1018.06
2022-08-12T09:09:13.251Z,1018.10
2022-08-12T09:10:09.256Z,1018.01
2022-08-12T09:11:07.561Z,1017.98
2022-08-12T09:12:11.656Z,1017.98
2022-08-12T09:13:07.484Z,1017.97
2022-08-12T09:14:10.493Z,1018.00
2022-08-12T09:16:07.983Z,1018.01
2022-08-12T09:17:06.452Z,1018.03
2022-08-12T09:18:08.494Z,1017.86
2022-08-12T09:19:06.436Z,1017.92
2022-08-12T09:20:07.426Z,1017.97
2022-08-12T09:21:06.589Z,1018.03
2022-08-12T09:22:06.455Z,1018.07
2022-08-12T09:23:07.967Z,1018.10
2022-08-12T09:24:07.757Z,1018.09
2022-08-12T09:25:06.481Z,1018.05
2022-08-12T09:26:08.259Z,1017.94
2022-08-12T09:27:06.372Z,1018.05
2022-08-12T09:28:10.872Z,1018.01
2022-08-12T09:29:11.683Z,1017.81
2022-08-12T09:30:11.581Z,1017.91
2022-08-12T09:32:03.192Z,1017.95
2022-08-12T09:32:09.357Z,1017.93
2022-08-12T09:33:19.219Z,1017.95
2022-08-12T09:34:29.145Z,1018.00
2022-08-12T09:35:18.577Z,1017.98
2022-08-12T09:36:08.070Z,1018.00
2022-08-12T09:37:20.435Z,1017.90
2022-08-12T09:38:07.326Z,1018.02
2022-08-12T09:40:05.802Z,1017.99
2022-08-12T09:40:55.663Z,1018.08
2022-08-12T09:42:32.939Z,1017.90
2022-08-12T09:42:39.633Z,1018.06
2022-08-12T09:43:16.072Z,1017.95
2022-08-12T09:44:37.695Z,1017.97
2022-08-12T09:45:19.374Z,1017.29
2022-08-12T09:46:21.950Z,1017.24
2022-08-12T09:47:10.447Z,1017.24
2022-08-12T09:48:06.206Z,1017.89
2022-08-12T09:49:16.256Z,1017.90
2022-08-12T09:50:07.173Z,1017.80
2022-08-12T09:51:16.622Z,1017.80
2022-08-12T09:52:07.180Z,1017.82
2022-08-12T09:53:06.163Z,1017.72
2022-08-12T09:54:30.755Z,1017.76
2022-08-12T09:55:07.148Z,1017.78
2022-08-12T09:56:57.945Z,1017.78
2022-08-12T09:58:08.025Z,1017.63
2022-08-12T09:58:57.354Z,1017.65
2022-08-12T09:59:07.155Z,1017.64
2022-08-12T10:00:17.553Z,1017.71
2022-08-12T10:01:15.472Z,1017.67
2022-08-12T10:02:44.300Z,1017.63
2022-08-12T10:03:07.166Z,1017.65
2022-08-12T10:04:06.254Z,1017.67
2022-08-12T10:05:06.076Z,1017.67
2022-08-12T10:06:26.670Z,1017.64
2022-08-12T10:07:07.026Z,1017.68
2022-08-12T10:08:07.079Z,1017.68
2022-08-12T10:09:06.025Z,1017.63
2022-08-12T10:10:06.028Z,1017.60
2022-08-12T10:11:05.993Z,1017.40
2022-08-12T10:12:10.388Z,1017.49
2022-08-12T10:13:11.866Z,1017.55
2022-08-12T10:14:06.982Z,1017.60
2022-08-12T10:15:06.970Z,1017.57
2022-08-12T10:16:06.140Z,1017.49
2022-08-12T10:17:08.541Z,1017.55
2022-08-12T10:18:07.814Z,1017.52
2022-08-12T10:19:05.927Z,1017.54
2022-08-12T10:20:09.924Z,1017.51
2022-08-12T10:21:07.345Z,1017.41
2022-08-12T10:22:05.904Z,1017.41
2022-08-12T10:23:06.896Z,1017.35
2022-08-12T10:24:06.923Z,1017.42
2022-08-12T10:25:17.570Z,1017.44
2022-08-12T10:26:34.327Z,1017.35
2022-08-12T10:27:06.899Z,1017.48
2022-08-12T10:28:10.703Z,1017.46
2022-08-12T10:30:01.772Z,1017.42
2022-08-12T10:30:41.801Z,1017.38
2022-08-12T10:31:16.567Z,1017.43
2022-08-12T10:32:20.815Z,1017.52
2022-08-12T10:33:17.994Z,1017.54
2022-08-12T10:34:14.869Z,1017.43
2022-08-12T10:35:06.793Z,1017.39
2022-08-12T10:36:05.788Z,1017.37
2022-08-12T10:37:22.902Z,1017.36
2022-08-12T10:38:34.556Z,1017.34
2022-08-12T10:40:01.626Z,1017.36
2022-08-12T10:40:11.378Z,1017.34
2022-08-12T10:41:06.833Z,1017.33
2022-08-12T10:42:06.807Z,1017.40
2022-08-12T10:43:05.733Z,1017.28
2022-08-12T10:44:05.721Z,1017.32
2022-08-12T10:45:05.723Z,1017.37
2022-08-12T10:46:13.204Z,1017.28
2022-08-12T10:47:26.454Z,1017.20
2022-08-12T10:48:20.493Z,1017.26
2022-08-12T10:50:05.296Z,1017.27
2022-08-12T10:50:29.468Z,1017.32
2022-08-12T10:52:05.424Z,1017.16
2022-08-12T10:52:32.877Z,1017.18
2022-08-12T10:53:08.817Z,1017.09
2022-08-12T10:54:05.640Z,1017.12
2022-08-12T10:55:06.888Z,1017.21
2022-08-12T10:56:06.637Z,1017.23
2022-08-12T10:57:05.752Z,1017.17
2022-08-12T10:58:15.665Z,1017.20
2022-08-12T10:59:10.966Z,1017.20
2022-08-12T11:00:34.280Z,1017.17
2022-08-12T11:01:48.919Z,1017.18
2022-08-12T11:04:18.339Z,1017.15
2022-08-12T11:04:20.635Z,1017.17
2022-08-12T11:04:25.547Z,1017.19
2022-08-12T11:07:07.996Z,1017.08
2022-08-12T11:07:08.367Z,1017.20
2022-08-12T11:08:37.230Z,1017.25
2022-08-12T11:08:37.663Z,1017.13
2022-08-12T11:09:07.281Z,1017.15
2022-08-12T11:10:05.601Z,1017.19
2022-08-12T11:11:09.601Z,1017.18
2022-08-12T11:12:35.472Z,1016.54
2022-08-12T11:13:09.284Z,1016.62
2022-08-12T11:14:05.502Z,1017.29
2022-08-12T11:15:18.503Z,1016.48
2022-08-12T11:16:21.612Z,1017.21
2022-08-12T11:17:43.433Z,1017.19
2022-08-12T11:18:06.458Z,1016.75
2022-08-12T11:19:06.441Z,1017.20
2022-08-12T11:20:05.435Z,1017.14
2022-08-12T11:21:05.781Z,1017.13
2022-08-12T11:22:05.435Z,1017.17
2022-08-12T11:23:33.983Z,1017.18
2022-08-12T11:24:06.396Z,1017.20
2022-08-12T11:25:10.207Z,1016.40
2022-08-12T11:26:07.198Z,1016.51
2022-08-12T11:27:07.780Z,1016.38
2022-08-12T11:28:06.372Z,1016.37
2022-08-12T11:29:22.171Z,1016.41
2022-08-12T11:30:11.741Z,1016.39
2022-08-12T11:31:06.353Z,1016.41
2022-08-12T11:32:05.334Z,1016.34
2022-08-12T11:33:12.319Z,1016.36
2022-08-12T11:34:51.281Z,1016.36
2022-08-12T11:35:06.301Z,1016.45
2022-08-12T11:36:22.252Z,1016.99
2022-08-12T11:37:05.305Z,1016.95
2022-08-12T11:38:06.242Z,1016.96
2022-08-12T11:39:05.388Z,1016.94
2022-08-12T11:40:05.262Z,1016.92
2022-08-12T11:41:05.241Z,1016.92
2022-08-12T11:42:05.279Z,1016.90
2022-08-12T11:43:18.593Z,1016.89
2022-08-12T11:44:35.869Z,1016.76
2022-08-12T11:45:06.197Z,1016.90
2022-08-12T11:46:05.550Z,1016.85
2022-08-12T11:47:09.507Z,1016.87
2022-08-12T11:48:05.191Z,1016.90
2022-08-12T11:49:05.152Z,1016.83
2022-08-12T11:50:05.175Z,1016.90
2022-08-12T11:51:05.137Z,1016.87
2022-08-12T11:52:27.279Z,1016.90
2022-08-12T11:53:06.193Z,1016.88
2022-08-12T11:54:06.109Z,1016.11
2022-08-12T11:55:05.137Z,1016.10
2022-08-12T11:56:05.096Z,1016.10
2022-08-12T11:58:07.568Z,1016.08
2022-08-12T11:58:19.730Z,1016.11
2022-08-12T12:02:06.088Z,1016.71
2022-08-12T12:03:05.169Z,1016.67
2022-08-12T12:04:05.027Z,1016.73
2022-08-12T12:05:05.036Z,1016.70
2022-08-12T12:06:05.008Z,1016.70
2022-08-12T12:07:07.158Z,1016.78
2022-08-12T12:08:38.111Z,1016.06
2022-08-12T12:09:08.090Z,1016.61